Athens, IN

7:20 AM EDT on October 24, 2014 (GMT -0400)
4th Street | Change Station
CLOSE
Current Station
Personal Weather Station
Location: Rochester, IN
Elevation: 781 ft
Nearby Weather Stations

Elev 781 ft 41.07 °N, 86.20 °W | Updated 1 minute ago

Rain
Rain
47.1 °F
Feels Like 47 °F
N
0.0
Wind Variable Wind from South
Gusts 2.0 mph

Today
High -- | Low -- °F
--% Chance of Precip.
Yesterday
High -- | Low -- °F
Precip. -- in
8:06 AM 6:50 PM
New Moon, 0% visible
Pressure 30.09 in
Visibility 5.0 miles
Clouds Scattered Clouds 1300 ft
Mostly Cloudy 1900 ft
Overcast 2600 ft
Windchill 47 °F
Dew Point 45 °F
Humidity 91%
Rainfall 0.11 in
Snow Depth Not available.
UV 0 out of 12
Pollen 1.10 out of 12
Air Quality Not available.
Flu Activity Sporadic
METAR KRCR 241035Z AUTO 18003KT 5SM RA SCT013 BKN019 OVC026 10/08 A3009 RMK AO2 P0005

More Conditions Fewer Conditions

Pressure 30.09 in
Visibility 5.0 miles
Clouds Scattered Clouds 1300 ft
Mostly Cloudy 1900 ft
Overcast 2600 ft
Windchill 47 °F
Dew Point 45 °F
Humidity 91%
Rainfall 0.11 in
Snow Depth Not available.
UV 0 out of 12
Pollen 1.10 out of 12
Air Quality Not available.
Flu Activity Sporadic
METAR KRCR 241035Z AUTO 18003KT 5SM RA SCT013 BKN019 OVC026 10/08 A3009 RMK AO2 P0005

More Conditions Fewer Conditions

10-Day Weather Forecast

Almanac

Astronomy

Oct. 24, 2014 Rise Set
Actual Time 8:06 AM EDT 6:50 PM EDT
Civil Twilight 7:37 AM EDT 7:18 PM EDT
Nautical Twilight 7:05 AM EDT 7:50 PM EDT
Astronomical Twilight 6:33 AM EDT 8:22 PM EDT
Moon 8:44 AM EDT 7:29 PM EDT
Length of Visible Light 11h 40m
Length of Day
10h 44m
Tomorrow will be 2m 32s shorter.
New Moon, 0% of the Moon is Illuminated
Today
New Moon
Oct 30
First Quarter
Nov 6
Full
Nov 14
Last Quarter
Nov 22
New

Today's Extremes

State Highs State Lows

Community

WunderPhotos

Upload Photos

1,764,525 photos uploaded!

WunderBlogs® & News

Nearby

Snow Depth

Station Depth Elevation
No new snow has been reported.

Earthquake Activity

City Distance Mag. Time & Date
No recent earthquake activity has been reported nearby.
Minimum magnitude displayed is 2.5.

Coastal Water Temperatures

Place Temperature
No Stations Reporting

Nearby Weather Stations